KFFA

First Flight Airport

Kill Devil Hills, North Carolina, USA
METAR KFFA 201550Z AUTO 21003KT 10SM SCT090 SCT110 27/22 A3004 RMK AO2 T02690219
Observed Flight Rules
Aug-20 @ 15:50 UTC (36 minutes ago) Visual Flight Rules
Wind Visibility Clouds
210° at 3 knots 10 miles
  • Scattered at 9,000' AGL
  • Scattered at 11,000' AGL
Temperatures Readings
Current 27°C / 81°F
Dewpoint 22°C / 72°F
Humidity 74%
Altimeter 30.04" Hg
Pressure 1017 hPa
Elevation 4
METAR KFFA 201550Z AUTO 21003KT 10SM SCT090 SCT110 27/22 A3004 RMK AO2 T02690219
Observed Flight Rules
Aug-20 @ 15:50 UTC
(36 minutes ago)
VFR
Wind Visibility
210° at 3 knots 10 miles
Clouds
  • Scattered at 9,000' AGL
  • Scattered at 11,000' AGL
Temperature Dewpoint
27°C / 81°F 22°C / 72°F
Humidity Altimeter Pressure
74% 30.04" Hg 1017 hPa